Observations for YEOVILTON NAVY, United Kingdom (EGDY)

EGDY 221150Z 12011KT 9999 SCT014 SCT120 21/19 Q1017 GRN BECMG FEW013 BLU
EGDY 221050Z 10009KT 8000 HZ SCT010 SCT040 19/18 Q1017 GRN BECMG FEW010 BLU 
EGDY 220950Z 11009KT 9999 FEW006 BKN008 19/17 Q1018 GRN BECMG FEW008 SCT015 WHT 
EGDY 220854Z 12009KT 9999 FEW003 BKN006 19/17 Q1019 YLO1 NOSIG  
EGDY 220750Z 11008KT 4000 BR SCT002 BKN003 17/16 Q1019 AMB BECMG BKN004 YLO2
EGDY 220650Z 12007KT 4000 VCFG FEW000 BKN002 16/16 Q1019 AMB BECMG BKN004 YLO2  
EGDY 220550Z 13003KT 4000 VCFG FEW000 14/14 Q1019 GRN TEMPO 3000 BR SCT001 RED  
EGDY 220450Z AUTO 10003KT 9999 FEW200/// 13/13 Q1019
EGDY 220350Z AUTO 14003KT 9999 FEW001/// BKN200/// 14/14 Q1019  
EGDY 220250Z AUTO 12002KT 9999 FEW002/// BKN210/// 14/14 Q1019  
EGDY 220150Z AUTO 11002KT 9999 FEW001/// 14/14 Q1019
EGDY 220050Z AUTO 11002KT 8000 BKN001/// 14/14 Q1020
EGDY 212350Z AUTO 19002KT 8000 NCD 16/15 Q1020  
EGDY 212250Z AUTO 25001KT 9999 FEW045/// 17/16 Q1020
EGDY 212150Z 35002KT 9999 BKN045 18/17 Q1020 BLU BECMG 7000 HZ WHT  
EGDY 212050Z 28001KT 9999 BKN040 19/17 Q1020 BLU BECMG 7000 HZ WHT  
EGDY 211950Z 27001KT 9999 SCT030 BKN045 19/17 Q1020 BLU BECMG 7000 HZ WHT   
EGDY 211850Z 33003KT 9999 SCT030 BKN045 20/17 Q1020 BLU BECMG 7000 HZ WHT   
EGDY 211750Z AUTO 32006KT 9999 BKN019/// 20/18 Q1020
EGDY 211650Z AUTO 28003KT 9999 BKN018/// BKN028/// 23/19 Q1020  
EGDY 211550Z AUTO 32006KT 9999 BKN019/// BKN041/// 23/19 Q1020  
EGDY 211450Z AUTO 24004KT 9999 OVC036/// 23/18 Q1020
EGDY 211353Z 23005KT 9999 FEW020 SCT024 24/18 Q1020 WHT NOSIG   
EGDY 211250Z 27005KT 9999 FEW018 SCT022 23/19 Q1020 WHT NOSIG   
EGDY 211150Z 24006KT 9999 FEW018 SCT020 22/18 Q1021 WHT NOSIG